Time;durP1;ratioP1;P1;durP2;ratioP2;P2;SDS_P1;SDS_P2;PMS_P1;PMS_P2;Temp;Humidity;BMP_temperature;BMP_pressure;BME280_temperature;BME280_humidity;BME280_pressure;Samples;Min_cycle;Max_cycle;Signal;HPM_P1;HPM_P2
2021/03/23 00:00:31;;;;;;;14.60;11.43;;;8.90;99.90;;;;;;4978360;28;20432;-76
2021/03/23 00:03:03;;;;;;;13.63;10.50;;;8.90;99.90;;;;;;4989163;28;20435;-76
2021/03/23 00:05:29;;;;;;;18.47;11.93;;;8.90;99.90;;;;;;4976412;28;20440;-76
2021/03/23 00:07:55;;;;;;;14.67;12.07;;;8.90;99.90;;;;;;4980382;28;21007;-75
2021/03/23 00:10:27;;;;;;;19.07;11.40;;;9.00;99.90;;;;;;4980537;28;20532;-76
2021/03/23 00:12:53;;;;;;;17.13;11.90;;;8.90;99.90;;;;;;4985612;28;20424;-76
2021/03/23 00:15:21;;;;;;;18.50;12.30;;;8.90;99.90;;;;;;4978647;28;20468;-77
2021/03/23 00:17:47;;;;;;;17.60;11.63;;;8.80;99.90;;;;;;4980311;28;20432;-78
2021/03/23 00:20:16;;;;;;;16.63;12.07;;;8.90;99.90;;;;;;4993391;28;20428;-77
2021/03/23 00:22:42;;;;;;;15.90;12.00;;;8.90;99.90;;;;;;4984353;28;20886;-76
2021/03/23 00:25:10;;;;;;;17.13;13.17;;;8.90;99.90;;;;;;4982257;28;20435;-79
2021/03/23 00:27:36;;;;;;;19.40;13.50;;;8.90;99.90;;;;;;4978252;28;20180;-79
2021/03/23 00:30:05;;;;;;;18.53;12.70;;;8.90;99.90;;;;;;4977581;28;20428;-76
2021/03/23 00:32:30;;;;;;;18.10;13.00;;;8.90;99.90;;;;;;4972000;28;20432;-76
2021/03/23 00:34:56;;;;;;;18.10;13.50;;;8.90;99.90;;;;;;4972926;28;20420;-75
2021/03/23 00:37:21;;;;;;;19.50;14.10;;;8.90;99.90;;;;;;4973385;28;20670;-76
2021/03/23 00:39:47;;;;;;;17.10;12.93;;;8.80;99.90;;;;;;4974028;28;20273;-77
2021/03/23 00:42:13;;;;;;;19.60;14.03;;;8.90;99.90;;;;;;4975007;28;20177;-75
2021/03/23 00:44:38;;;;;;;20.60;14.37;;;8.90;99.90;;;;;;4973673;28;20549;-76
2021/03/23 00:47:04;;;;;;;19.70;14.07;;;8.80;99.90;;;;;;4972471;28;20193;-77
2021/03/23 00:49:30;;;;;;;23.07;15.20;;;8.80;99.90;;;;;;4973429;28;20850;-76
2021/03/23 00:51:55;;;;;;;20.10;15.20;;;8.80;99.90;;;;;;4973732;28;20256;-75
2021/03/23 00:54:21;;;;;;;23.80;14.90;;;8.80;99.90;;;;;;5004848;28;20174;-75
2021/03/23 00:56:47;;;;;;;18.63;14.13;;;8.80;99.90;;;;;;4973318;28;20292;-76
2021/03/23 00:59:13;;;;;;;21.30;14.63;;;8.70;99.90;;;;;;4973227;28;20243;-76
2021/03/23 01:01:38;;;;;;;26.73;15.37;;;8.70;99.90;;;;;;4973131;28;20193;-76
2021/03/23 01:04:05;;;;;;;22.87;16.63;;;8.60;99.90;;;;;;4971952;28;20268;-76
2021/03/23 01:06:30;;;;;;;20.70;15.00;;;8.60;99.90;;;;;;4973307;28;20540;-76
2021/03/23 01:08:56;;;;;;;19.63;13.80;;;8.40;99.90;;;;;;4975854;28;20455;-77
2021/03/23 01:11:22;;;;;;;23.83;16.90;;;8.30;99.90;;;;;;4972665;28;20797;-76
2021/03/23 01:13:47;;;;;;;18.10;15.20;;;8.40;99.90;;;;;;4972533;28;20548;-76
2021/03/23 01:16:13;;;;;;;18.80;15.20;;;8.50;99.90;;;;;;4962961;28;20577;-76
2021/03/23 01:18:38;;;;;;;22.17;15.20;;;8.50;99.90;;;;;;4962608;28;20592;-76
2021/03/23 01:21:05;;;;;;;21.10;16.30;;;8.50;99.90;;;;;;4956974;28;20705;-76
2021/03/23 01:23:30;;;;;;;24.60;15.97;;;8.50;99.90;;;;;;5004344;28;20182;-76
2021/03/23 01:25:56;;;;;;;25.37;17.50;;;8.50;99.90;;;;;;4973097;28;20421;-76
2021/03/23 01:28:21;;;;;;;21.43;17.07;;;8.40;99.90;;;;;;4984882;28;20212;-76
2021/03/23 01:30:47;;;;;;;26.53;17.83;;;8.40;99.90;;;;;;4977077;28;20185;-77
2021/03/23 01:33:13;;;;;;;24.57;17.83;;;8.20;99.90;;;;;;4975829;28;20200;-76
2021/03/23 01:35:39;;;;;;;21.03;16.90;;;8.20;99.90;;;;;;4986171;28;20220;-76
2021/03/23 01:38:04;;;;;;;24.43;17.73;;;8.30;99.90;;;;;;4972693;28;20198;-76
2021/03/23 01:40:31;;;;;;;22.67;17.57;;;8.30;99.90;;;;;;4987648;28;20436;-76
2021/03/23 01:42:59;;;;;;;25.60;18.70;;;8.20;99.90;;;;;;4972783;28;20264;-76
2021/03/23 01:45:35;;;;;;;30.17;17.60;;;8.10;99.90;;;;;;4971827;28;20428;-75
2021/03/23 01:48:15;;;;;;;23.70;16.23;;;8.00;99.90;;;;;;4972650;28;20444;-76
2021/03/23 01:50:41;;;;;;;26.50;17.10;;;8.00;99.90;;;;;;4974761;28;20424;-78
2021/03/23 01:53:13;;;;;;;27.63;18.03;;;8.10;99.90;;;;;;4974481;28;20436;-76
2021/03/23 01:55:39;;;;;;;28.90;17.80;;;8.10;99.90;;;;;;4972729;28;20487;-76
2021/03/23 01:58:06;;;;;;;29.33;17.90;;;8.00;99.90;;;;;;4972576;28;20445;-76
2021/03/23 02:00:32;;;;;;;27.80;19.60;;;8.10;99.90;;;;;;4972559;28;20448;-76
2021/03/23 02:02:58;;;;;;;28.73;19.93;;;8.10;99.90;;;;;;4972396;28;20456;-76
2021/03/23 02:05:30;;;;;;;27.50;19.10;;;8.20;99.90;;;;;;4971866;28;20186;-77
2021/03/23 02:07:57;;;;;;;29.37;20.60;;;8.20;99.90;;;;;;4972682;28;20473;-76
2021/03/23 02:10:23;;;;;;;28.93;18.80;;;8.20;99.90;;;;;;4972450;28;20501;-76
2021/03/23 02:12:50;;;;;;;29.80;20.80;;;8.10;99.90;;;;;;5003619;28;20440;-76
2021/03/23 02:15:19;;;;;;;26.50;18.77;;;8.10;99.90;;;;;;4972503;28;20487;-76
2021/03/23 02:18:05;;;;;;;30.40;19.90;;;8.10;99.90;;;;;;4973609;28;20417;-77
2021/03/23 02:20:31;;;;;;;27.27;19.40;;;8.10;99.90;;;;;;4990638;28;20467;-77
2021/03/23 02:23:05;;;;;;;28.87;19.73;;;8.10;99.90;;;;;;4990236;28;20817;-76
2021/03/23 02:25:31;;;;;;;29.83;20.53;;;8.10;99.90;;;;;;4987204;28;20186;-76
2021/03/23 02:27:56;;;;;;;34.50;20.03;;;8.00;99.90;;;;;;4972360;28;20444;-76
2021/03/23 02:30:31;;;;;;;32.63;22.07;;;7.90;99.90;;;;;;4972174;28;20647;-76
2021/03/23 02:32:57;;;;;;;36.33;22.53;;;8.00;99.90;;;;;;4972062;28;20205;-76
2021/03/23 02:35:22;;;;;;;27.10;19.67;;;8.10;99.90;;;;;;4972469;28;20881;-76
2021/03/23 02:37:48;;;;;;;30.60;22.53;;;8.10;99.90;;;;;;4972384;28;20201;-76
2021/03/23 02:40:14;;;;;;;29.97;21.70;;;8.10;99.90;;;;;;4973950;28;20546;-76
2021/03/23 02:42:40;;;;;;;35.60;22.50;;;8.20;99.90;;;;;;4975680;28;20180;-76
2021/03/23 02:45:07;;;;;;;30.53;21.93;;;8.20;99.90;;;;;;4975812;28;20417;-76
2021/03/23 02:47:32;;;;;;;29.63;21.50;;;8.10;99.90;;;;;;4975751;28;20166;-75
2021/03/23 02:49:58;;;;;;;37.13;21.97;;;8.10;99.90;;;;;;4975544;28;20428;-75
2021/03/23 02:52:23;;;;;;;35.17;22.30;;;8.10;99.90;;;;;;4975313;28;20181;-75
2021/03/23 02:54:49;;;;;;;32.83;22.50;;;8.10;99.90;;;;;;4975654;28;20181;-76
2021/03/23 02:57:14;;;;;;;89.20;59.63;;;8.10;99.90;;;;;;4974972;28;20209;-75
2021/03/23 02:59:40;;;;;;;85.13;56.80;;;8.00;99.90;;;;;;4974528;28;20197;-76
2021/03/23 03:02:06;;;;;;;32.63;22.00;;;8.00;99.90;;;;;;4975573;28;20173;-76
2021/03/23 03:04:33;;;;;;;29.43;21.63;;;7.80;99.90;;;;;;4975474;28;20181;-76
2021/03/23 03:06:59;;;;;;;34.00;21.63;;;7.80;99.90;;;;;;4990272;28;20413;-76
2021/03/23 03:09:25;;;;;;;33.20;21.20;;;7.80;99.90;;;;;;4974801;28;20511;-76
2021/03/23 03:11:51;;;;;;;34.50;21.73;;;7.70;99.90;;;;;;4990373;28;20424;-76
2021/03/23 03:14:19;;;;;;;33.53;22.77;;;7.70;99.90;;;;;;4975180;28;20431;-76
2021/03/23 03:16:45;;;;;;;38.37;23.60;;;7.70;99.90;;;;;;4973971;28;20631;-76
2021/03/23 03:19:10;;;;;;;42.97;21.47;;;7.40;99.90;;;;;;4977104;28;20476;-77
2021/03/23 03:21:36;;;;;;;34.30;22.03;;;7.50;99.90;;;;;;4976354;28;20479;-76
2021/03/23 03:24:02;;;;;;;31.97;23.13;;;7.40;99.90;;;;;;4977762;28;20173;-77
2021/03/23 03:26:28;;;;;;;36.80;21.47;;;7.50;99.90;;;;;;4977952;28;20566;-76
2021/03/23 03:28:53;;;;;;;38.60;23.00;;;7.40;99.90;;;;;;4977574;28;20445;-77
2021/03/23 03:31:25;;;;;;;36.93;22.07;;;7.60;99.90;;;;;;4977696;28;20181;-77
2021/03/23 03:33:55;;;;;;;33.20;23.37;;;7.60;99.90;;;;;;4976784;28;20232;-77
2021/03/23 03:36:22;;;;;;;36.30;23.80;;;7.70;99.90;;;;;;4976352;28;20460;-76
2021/03/23 03:38:48;;;;;;;30.13;21.50;;;7.70;99.90;;;;;;4977806;28;20437;-77
2021/03/23 03:41:14;;;;;;;36.80;21.97;;;7.70;99.90;;;;;;4976012;28;20417;-78
2021/03/23 03:43:41;;;;;;;31.53;21.20;;;7.70;99.90;;;;;;4993226;28;20444;-77
2021/03/23 03:46:07;;;;;;;36.13;22.20;;;7.80;99.90;;;;;;4978036;28;20256;-78
2021/03/23 03:48:32;;;;;;;35.13;22.37;;;7.70;99.90;;;;;;4975528;28;20448;-77
2021/03/23 03:50:58;;;;;;;38.10;24.70;;;7.70;99.90;;;;;;4975114;28;20475;-78
2021/03/23 03:53:25;;;;;;;38.60;24.10;;;7.50;99.90;;;;;;4976897;28;20182;-78
2021/03/23 03:55:52;;;;;;;44.13;26.53;;;7.40;99.90;;;;;;4976362;28;20224;-75
2021/03/23 03:58:18;;;;;;;32.60;21.40;;;7.40;99.90;;;;;;4999851;28;20441;-77
2021/03/23 04:00:43;;;;;;;36.60;23.83;;;7.40;99.90;;;;;;4976316;28;20436;-77
2021/03/23 04:03:20;;;;;;;38.40;22.93;;;7.30;99.90;;;;;;4975550;28;20264;-76
2021/03/23 04:05:47;;;;;;;36.40;22.17;;;7.30;99.90;;;;;;5008105;28;20241;-78
2021/03/23 04:08:16;;;;;;;38.00;22.60;;;7.30;99.90;;;;;;4975864;28;20456;-76
2021/03/23 04:10:42;;;;;;;38.40;23.37;;;7.40;99.90;;;;;;4977007;28;20865;-78
2021/03/23 04:13:08;;;;;;;48.57;27.80;;;7.40;99.90;;;;;;4976712;28;20444;-78
2021/03/23 04:15:40;;;;;;;36.60;23.47;;;7.50;99.90;;;;;;4977410;28;20457;-78
2021/03/23 04:18:07;;;;;;;54.83;30.83;;;7.50;99.90;;;;;;4974074;28;20445;-77
2021/03/23 04:20:33;;;;;;;33.03;22.37;;;7.50;99.90;;;;;;4976382;28;20460;-78
2021/03/23 04:23:00;;;;;;;40.80;22.77;;;7.60;99.90;;;;;;4977124;28;20417;-77
2021/03/23 04:25:28;;;;;;;36.70;21.50;;;7.70;99.90;;;;;;4974981;28;20421;-76
2021/03/23 04:27:54;;;;;;;40.03;23.20;;;7.70;99.90;;;;;;4975264;28;20826;-76
2021/03/23 04:30:22;;;;;;;38.83;22.50;;;7.70;99.90;;;;;;4976269;28;20787;-77
2021/03/23 04:32:48;;;;;;;33.10;22.60;;;7.60;99.90;;;;;;4970042;28;20761;-78
2021/03/23 04:35:49;;;;;;;39.57;24.00;;;7.70;99.90;;;;;;4978638;28;20512;-77
2021/03/23 04:38:18;;;;;;;42.17;24.17;;;7.60;99.90;;;;;;4961521;28;20439;-77
2021/03/23 04:40:45;;;;;;;35.03;22.73;;;7.80;99.90;;;;;;4975778;28;20439;-75
2021/03/23 04:43:16;;;;;;;35.23;22.07;;;7.60;99.90;;;;;;4975783;28;20504;-77
2021/03/23 04:45:41;;;;;;;49.83;23.37;;;7.60;99.90;;;;;;4973867;28;20848;-78
2021/03/23 04:48:07;;;;;;;41.10;23.07;;;7.60;99.90;;;;;;5007149;28;20437;-77
2021/03/23 04:50:33;;;;;;;36.33;24.07;;;7.50;99.90;;;;;;4976280;28;20257;-77
2021/03/23 04:52:58;;;;;;;36.33;22.00;;;7.60;99.90;;;;;;4992319;28;20447;-76
2021/03/23 04:55:24;;;;;;;38.10;22.30;;;7.60;99.90;;;;;;4975994;28;20204;-78
2021/03/23 04:57:49;;;;;;;32.20;22.10;;;7.70;99.90;;;;;;4976118;28;20289;-78
2021/03/23 05:00:16;;;;;;;34.67;23.10;;;7.50;99.90;;;;;;4983535;28;20178;-77
2021/03/23 05:02:41;;;;;;;33.83;23.03;;;7.60;99.90;;;;;;4975693;28;20184;-77
2021/03/23 05:05:08;;;;;;;37.70;23.07;;;7.60;99.90;;;;;;4975788;28;20910;-77
2021/03/23 05:07:35;;;;;;;43.23;23.27;;;7.40;99.90;;;;;;4975164;28;20178;-77
2021/03/23 05:10:00;;;;;;;34.83;22.10;;;7.40;99.90;;;;;;4975740;28;20487;-78
2021/03/23 05:12:26;;;;;;;38.40;22.30;;;7.30;99.90;;;;;;4974372;28;20413;-77
2021/03/23 05:14:51;;;;;;;36.03;23.83;;;7.10;99.90;;;;;;4974401;28;20189;-77
2021/03/23 05:17:17;;;;;;;32.83;21.70;;;7.00;99.90;;;;;;4975187;28;20206;-76
2021/03/23 05:19:43;;;;;;;41.00;25.70;;;6.90;99.90;;;;;;4974934;28;20558;-77
2021/03/23 05:22:09;;;;;;;33.37;22.67;;;6.90;99.90;;;;;;4975145;28;20177;-76
2021/03/23 05:24:34;;;;;;;35.23;23.60;;;6.90;99.90;;;;;;4975205;28;20424;-77
2021/03/23 05:27:00;;;;;;;36.50;23.60;;;6.80;99.90;;;;;;4976425;28;20178;-77
2021/03/23 05:29:25;;;;;;;34.73;23.63;;;6.80;99.90;;;;;;4977469;28;20204;-77
2021/03/23 05:31:51;;;;;;;35.27;22.83;;;6.70;99.90;;;;;;4987073;28;20236;-76
2021/03/23 05:34:17;;;;;;;34.10;21.67;;;6.70;99.90;;;;;;4975278;28;20187;-77
2021/03/23 05:36:44;;;;;;;37.00;22.00;;;6.70;99.90;;;;;;4973860;28;20297;-77
2021/03/23 05:39:10;;;;;;;37.60;22.80;;;6.70;99.90;;;;;;4974701;28;20189;-75
2021/03/23 05:41:54;;;;;;;35.00;23.37;;;6.70;99.90;;;;;;4974104;28;20516;-76
2021/03/23 05:44:48;;;;;;;34.73;23.57;;;6.90;99.90;;;;;;4989670;28;20444;-76
2021/03/23 05:47:19;;;;;;;74.43;47.97;;;7.00;99.90;;;;;;4974134;28;20487;-77
2021/03/23 05:50:04;;;;;;;92.60;58.13;;;7.00;99.90;;;;;;4972928;28;20441;-77
2021/03/23 05:52:54;;;;;;;37.60;23.70;;;7.00;99.90;;;;;;4974008;28;20412;-78
2021/03/23 05:55:32;;;;;;;36.10;21.13;;;7.20;99.90;;;;;;4990235;28;20444;-76
2021/03/23 05:58:00;;;;;;;39.53;23.37;;;7.30;99.90;;;;;;4990306;28;20449;-77
2021/03/23 06:00:37;;;;;;;42.43;23.70;;;7.40;99.90;;;;;;4974547;28;20479;-77
2021/03/23 06:03:17;;;;;;;35.00;22.53;;;7.30;99.90;;;;;;4974190;28;20783;-77
2021/03/23 06:06:00;;;;;;;34.77;22.07;;;7.30;99.90;;;;;;4969772;28;20427;-77
2021/03/23 06:08:32;;;;;;;34.60;21.23;;;7.30;99.90;;;;;;4974566;28;20519;-77
2021/03/23 06:11:29;;;;;;;42.67;22.57;;;7.20;99.90;;;;;;4973225;28;20432;-77
2021/03/23 06:13:55;;;;;;;50.73;33.67;;;7.40;99.90;;;;;;4974995;28;20483;-77
2021/03/23 06:17:03;;;;;;;34.87;24.20;;;7.40;99.90;;;;;;4993443;28;20808;-77
2021/03/23 06:19:44;;;;;;;43.10;29.43;;;7.50;99.90;;;;;;4977100;28;20189;-77
2021/03/23 06:22:15;;;;;;;36.17;21.83;;;7.60;99.90;;;;;;4978268;28;20420;-77
2021/03/23 06:24:47;;;;;;;36.63;21.13;;;7.70;99.90;;;;;;4978491;28;20425;-76
2021/03/23 06:27:24;;;;;;;37.40;22.80;;;7.70;99.90;;;;;;4994208;28;20483;-77
2021/03/23 06:30:08;;;;;;;39.13;23.90;;;7.80;99.90;;;;;;4978207;28;20953;-77
2021/03/23 06:32:52;;;;;;;31.87;21.63;;;7.90;99.90;;;;;;4979097;28;20424;-77
2021/03/23 06:35:31;;;;;;;37.53;22.40;;;7.90;99.90;;;;;;4978843;28;20423;-77
2021/03/23 06:37:57;;;;;;;34.40;20.80;;;7.90;99.90;;;;;;4977167;28;20984;-77
2021/03/23 06:40:26;;;;;;;29.87;20.13;;;7.90;99.90;;;;;;4978085;28;20413;-78
2021/03/23 06:42:54;;;;;;;35.67;22.33;;;7.80;99.90;;;;;;4978462;28;20165;-77
2021/03/23 06:45:34;;;;;;;37.17;22.27;;;7.60;99.90;;;;;;5009880;28;20488;-78
2021/03/23 06:48:26;;;;;;;38.37;22.10;;;7.50;99.90;;;;;;4976402;28;20454;-77
2021/03/23 06:51:13;;;;;;;35.13;22.97;;;7.40;99.90;;;;;;4976514;28;20943;-77
2021/03/23 06:53:40;;;;;;;37.30;23.13;;;7.40;99.90;;;;;;4972641;28;20511;-79
2021/03/23 06:56:17;;;;;;;41.93;20.80;;;7.60;99.90;;;;;;4992797;28;21044;-77
2021/03/23 06:58:43;;;;;;;35.00;21.13;;;7.70;99.90;;;;;;4978012;28;20447;-77
2021/03/23 07:01:39;;;;;;;31.10;21.97;;;7.80;99.90;;;;;;4977741;28;20428;-77
2021/03/23 07:04:28;;;;;;;28.97;21.03;;;7.90;99.90;;;;;;4970754;28;20925;-77
2021/03/23 07:07:09;;;;;;;30.73;21.37;;;7.90;99.90;;;;;;4973620;28;20774;-77
2021/03/23 07:09:55;;;;;;;33.60;20.33;;;7.80;99.90;;;;;;5002197;28;20471;-77
2021/03/23 07:12:46;;;;;;;35.20;20.90;;;7.80;99.90;;;;;;4977386;28;20424;-77
2021/03/23 07:15:16;;;;;;;32.67;22.63;;;7.90;99.90;;;;;;4977233;28;20525;-77
2021/03/23 07:17:48;;;;;;;31.40;20.60;;;7.90;99.90;;;;;;4976989;28;20448;-76
2021/03/23 07:20:24;;;;;;;34.60;20.70;;;7.90;99.90;;;;;;4977075;28;20425;-77
2021/03/23 07:22:52;;;;;;;35.43;21.73;;;7.80;99.90;;;;;;4977185;28;20425;-77
2021/03/23 07:25:30;;;;;;;34.60;20.53;;;7.90;99.90;;;;;;5007345;28;20451;-77
2021/03/23 07:28:20;;;;;;;31.33;19.63;;;7.70;99.90;;;;;;4991150;28;20433;-77
2021/03/23 07:31:01;;;;;;;31.77;21.50;;;7.70;99.90;;;;;;4976265;28;20758;-76
2021/03/23 07:33:42;;;;;;;33.10;21.90;;;7.60;99.90;;;;;;4991558;28;20421;-77
2021/03/23 07:36:13;;;;;;;27.50;20.30;;;7.60;99.90;;;;;;4982782;28;20802;-76
2021/03/23 07:38:49;;;;;;;29.70;19.50;;;7.70;99.90;;;;;;4976161;28;20445;-76
2021/03/23 07:41:35;;;;;;;30.80;20.13;;;7.70;99.90;;;;;;4984004;28;20862;-76
2021/03/23 07:44:27;;;;;;;31.17;19.10;;;7.80;99.90;;;;;;4976850;28;21027;-77
2021/03/23 07:46:58;;;;;;;32.87;20.87;;;7.70;99.90;;;;;;4973291;28;20472;-77
2021/03/23 07:49:36;;;;;;;30.97;19.87;;;7.50;99.90;;;;;;4976525;28;20437;-77
2021/03/23 07:52:12;;;;;;;31.53;22.00;;;7.40;99.90;;;;;;4985934;28;20931;-77
2021/03/23 07:54:40;;;;;;;28.73;20.40;;;7.40;99.90;;;;;;4988505;28;20436;-77
2021/03/23 07:57:30;;;;;;;31.87;21.07;;;7.40;99.90;;;;;;4995164;28;20463;-77
2021/03/23 08:00:14;;;;;;;33.93;19.10;;;7.50;99.90;;;;;;4975506;28;20417;-77
2021/03/23 08:03:01;;;;;;;37.07;20.90;;;7.60;99.90;;;;;;4973154;28;20489;-77
2021/03/23 08:05:38;;;;;;;31.90;19.87;;;7.50;99.90;;;;;;4975741;28;20421;-77
2021/03/23 08:08:35;;;;;;;27.00;19.43;;;7.50;99.90;;;;;;4976751;28;20433;-77
2021/03/23 08:11:33;;;;;;;30.33;20.23;;;7.50;99.90;;;;;;4976803;28;20424;-76
2021/03/23 08:14:26;;;;;;;30.60;18.33;;;7.50;99.90;;;;;;4976016;28;20427;-77
2021/03/23 08:17:24;;;;;;;27.80;18.23;;;7.50;99.90;;;;;;4990021;28;20465;-77
2021/03/23 08:19:59;;;;;;;24.70;17.53;;;7.60;99.90;;;;;;5002947;28;20429;-77
2021/03/23 08:22:43;;;;;;;31.30;19.67;;;7.60;99.90;;;;;;4967223;28;20528;-76
2021/03/23 08:25:36;;;;;;;27.30;17.17;;;7.80;99.90;;;;;;4991015;28;20421;-77
2021/03/23 08:28:17;;;;;;;29.40;19.17;;;7.80;99.90;;;;;;4977165;28;20436;-77
2021/03/23 08:30:51;;;;;;;24.73;17.03;;;7.90;99.90;;;;;;4976297;28;20412;-78
2021/03/23 08:33:35;;;;;;;30.40;20.03;;;7.90;99.90;;;;;;5008021;28;20416;-78
2021/03/23 08:36:34;;;;;;;25.40;16.57;;;8.00;99.90;;;;;;4991364;28;20547;-77
2021/03/23 08:39:14;;;;;;;26.77;18.60;;;8.00;99.90;;;;;;4975743;28;20447;-76
2021/03/23 08:41:59;;;;;;;29.97;18.60;;;8.10;99.90;;;;;;4974863;28;20463;-78
2021/03/23 08:44:35;;;;;;;28.00;17.60;;;8.30;99.90;;;;;;4967612;28;20830;-75
2021/03/23 08:47:26;;;;;;;23.37;16.87;;;8.30;99.90;;;;;;4976346;28;20438;-77
2021/03/23 08:49:54;;;;;;;29.77;17.47;;;8.40;99.90;;;;;;5006500;28;20480;-77
2021/03/23 08:52:35;;;;;;;25.40;18.90;;;8.30;99.90;;;;;;4971820;28;20420;-76
2021/03/23 08:55:03;;;;;;;27.20;18.10;;;8.50;99.90;;;;;;4969550;28;20460;-77
2021/03/23 08:57:53;;;;;;;21.77;15.83;;;8.60;99.90;;;;;;4974747;28;20467;-76
2021/03/23 09:00:42;;;;;;;26.33;16.60;;;8.60;99.90;;;;;;4975899;28;20956;-77
2021/03/23 09:03:07;;;;;;;21.47;15.53;;;8.60;99.90;;;;;;4974574;28;20424;-77
2021/03/23 09:06:02;;;;;;;28.17;16.83;;;8.80;99.90;;;;;;4990944;28;20429;-77
2021/03/23 09:08:40;;;;;;;22.13;16.10;;;8.80;99.90;;;;;;4986432;28;20209;-78
2021/03/23 09:11:10;;;;;;;34.77;17.57;;;8.90;99.90;;;;;;4989721;28;20433;-77
2021/03/23 09:13:36;;;;;;;37.03;20.53;;;9.10;99.90;;;;;;4989615;28;20863;-76
2021/03/23 09:16:17;;;;;;;26.10;16.40;;;8.80;99.90;;;;;;4974173;28;20504;-77
2021/03/23 09:19:02;;;;;;;28.33;15.77;;;8.90;99.90;;;;;;4974724;28;20535;-77
2021/03/23 09:21:52;;;;;;;29.43;15.90;;;9.00;99.90;;;;;;4973949;28;20499;-76
2021/03/23 09:24:34;;;;;;;26.47;16.60;;;9.10;99.90;;;;;;4986981;28;20521;-75
2021/03/23 09:27:03;;;;;;;25.27;15.50;;;9.20;99.90;;;;;;4972378;28;20954;-75
2021/03/23 09:29:31;;;;;;;24.27;17.67;;;9.10;99.90;;;;;;4972565;28;20448;-75
2021/03/23 09:32:02;;;;;;;26.57;16.10;;;9.10;99.90;;;;;;4961603;28;20425;-75
2021/03/23 09:35:04;;;;;;;25.60;16.37;;;9.30;99.90;;;;;;4972226;28;20919;-76
2021/03/23 09:37:36;;;;;;;38.40;17.90;;;9.20;99.90;;;;;;4972241;28;20471;-76
2021/03/23 09:40:24;;;;;;;26.90;18.20;;;9.20;99.90;;;;;;4972249;28;20464;-75
2021/03/23 09:43:07;;;;;;;21.50;16.60;;;9.10;99.90;;;;;;4971177;28;20464;-76
2021/03/23 09:45:38;;;;;;;33.10;18.47;;;9.30;99.90;;;;;;4964991;28;20432;-75
2021/03/23 09:48:12;;;;;;;25.83;17.57;;;9.30;99.90;;;;;;4972421;28;20440;-76
2021/03/23 09:50:58;;;;;;;25.73;16.40;;;9.40;99.90;;;;;;4976162;28;20754;-76
2021/03/23 09:53:41;;;;;;;22.63;15.47;;;9.70;99.90;;;;;;4976613;28;20422;-75
2021/03/23 09:56:16;;;;;;;28.40;16.83;;;9.60;99.90;;;;;;4976508;28;20969;-75
2021/03/23 09:58:42;;;;;;;27.60;16.30;;;9.70;99.90;;;;;;4976463;28;20431;-75
2021/03/23 10:01:12;;;;;;;33.10;16.97;;;9.80;99.90;;;;;;4976154;28;20450;-76
2021/03/23 10:03:38;;;;;;;27.80;16.57;;;9.90;99.90;;;;;;4976473;28;20421;-77
2021/03/23 10:06:12;;;;;;;22.00;15.33;;;9.90;99.90;;;;;;4976121;28;20424;-76
2021/03/23 10:08:54;;;;;;;31.73;15.73;;;9.90;99.90;;;;;;4976050;28;20527;-75
2021/03/23 10:11:21;;;;;;;29.90;17.10;;;10.00;99.90;;;;;;4991147;28;20436;-75
2021/03/23 10:13:51;;;;;;;29.10;16.10;;;10.20;99.90;;;;;;4976253;28;20421;-76
2021/03/23 10:16:23;;;;;;;21.90;14.90;;;10.20;99.90;;;;;;4975861;28;20539;-75
2021/03/23 10:18:49;;;;;;;24.33;16.30;;;10.40;99.90;;;;;;4976203;28;20496;-76
2021/03/23 10:21:16;;;;;;;25.00;16.47;;;10.50;99.90;;;;;;4975329;28;20421;-76
2021/03/23 10:23:50;;;;;;;25.50;16.03;;;10.70;99.90;;;;;;4976666;28;20507;-77
2021/03/23 10:26:16;;;;;;;17.87;13.73;;;10.80;99.90;;;;;;4977424;28;20519;-76
2021/03/23 10:28:56;;;;;;;22.30;16.13;;;11.20;99.90;;;;;;4975624;28;20476;-76
2021/03/23 10:31:35;;;;;;;28.70;16.53;;;11.20;99.90;;;;;;4977000;28;20267;-76
2021/03/23 10:34:14;;;;;;;23.60;13.87;;;11.30;99.90;;;;;;4976675;28;20452;-76
2021/03/23 10:36:42;;;;;;;30.53;14.90;;;11.60;99.90;;;;;;4975852;28;20886;-75
2021/03/23 10:39:34;;;;;;;27.30;17.23;;;12.10;99.90;;;;;;4975426;28;20439;-75
2021/03/23 10:42:13;;;;;;;24.07;16.80;;;12.10;99.90;;;;;;4975790;28;20791;-75
2021/03/23 10:44:39;;;;;;;23.93;15.37;;;12.10;99.90;;;;;;4975589;28;20416;-76
2021/03/23 10:47:04;;;;;;;24.50;15.50;;;12.10;99.90;;;;;;4975498;28;20435;-75
2021/03/23 10:49:33;;;;;;;23.50;14.23;;;12.30;99.90;;;;;;4975514;28;20193;-76
2021/03/23 10:52:17;;;;;;;23.43;14.83;;;12.70;99.90;;;;;;4976849;28;20254;-76
2021/03/23 10:54:43;;;;;;;19.50;13.57;;;12.80;99.90;;;;;;4976752;28;20491;-76
2021/03/23 10:57:35;;;;;;;23.80;15.33;;;13.40;99.90;;;;;;4977115;28;20463;-77
2021/03/23 11:00:27;;;;;;;19.43;13.27;;;14.10;99.90;;;;;;4974055;28;20170;-76
2021/03/23 11:02:53;;;;;;;22.17;15.03;;;14.60;99.90;;;;;;4976725;28;20479;-77
2021/03/23 11:05:22;;;;;;;23.63;14.70;;;14.60;99.90;;;;;;5007438;28;20421;-76
2021/03/23 11:07:50;;;;;;;23.03;14.10;;;14.80;99.90;;;;;;4975960;28;20500;-76
2021/03/23 11:10:20;;;;;;;17.53;14.10;;;15.00;99.90;;;;;;4975075;28;20421;-75
2021/03/23 11:12:46;;;;;;;19.03;15.37;;;14.90;99.90;;;;;;4976059;28;20425;-77
2021/03/23 11:15:12;;;;;;;20.40;14.03;;;15.30;99.90;;;;;;4976335;28;21065;-77
2021/03/23 11:17:50;;;;;;;25.37;15.27;;;16.00;99.90;;;;;;4976198;28;20461;-76
2021/03/23 11:20:26;;;;;;;16.80;13.97;;;16.60;99.90;;;;;;5006852;28;20425;-77
2021/03/23 11:22:55;;;;;;;24.63;15.53;;;16.90;99.90;;;;;;4976037;28;20416;-77
2021/03/23 11:25:22;;;;;;;20.93;15.53;;;16.70;99.90;;;;;;4974371;28;20504;-75
2021/03/23 11:27:48;;;;;;;20.50;15.03;;;16.40;99.90;;;;;;5005970;28;20409;-76
2021/03/23 11:30:15;;;;;;;21.57;15.67;;;16.80;99.90;;;;;;4974542;28;20736;-76
2021/03/23 11:32:40;;;;;;;19.93;14.30;;;16.80;99.90;;;;;;4973946;28;20464;-77
2021/03/23 11:35:08;;;;;;;19.37;15.67;;;16.40;99.90;;;;;;4975065;28;20461;-78
2021/03/23 11:37:33;;;;;;;18.00;12.93;;;16.50;99.10;;;;;;4975677;28;20197;-75
2021/03/23 11:39:59;;;;;;;21.17;16.90;;;17.10;99.90;;;;;;4972551;28;20487;-76
2021/03/23 11:42:34;;;;;;;17.93;12.57;;;17.20;93.50;;;;;;4970638;28;20181;-75
2021/03/23 11:45:06;;;;;;;17.90;14.37;;;18.00;99.20;;;;;;4973420;28;20320;-75
2021/03/23 11:47:48;;;;;;;18.53;15.10;;;18.20;95.80;;;;;;4971303;28;20516;-73
2021/03/23 11:50:21;;;;;;;19.83;15.53;;;18.50;93.40;;;;;;4970399;28;20491;-74
2021/03/23 11:52:48;;;;;;;22.40;16.50;;;17.70;91.20;;;;;;4987881;28;20427;-76
2021/03/23 11:55:17;;;;;;;21.20;15.37;;;17.90;91.40;;;;;;4974704;28;20464;-75
2021/03/23 11:57:43;;;;;;;18.73;16.27;;;18.10;91.40;;;;;;4974288;28;20456;-74
2021/03/23 12:00:12;;;;;;;22.97;18.07;;;18.20;90.90;;;;;;4974088;28;20417;-76
2021/03/23 12:02:39;;;;;;;27.60;18.20;;;18.00;91.40;;;;;;4973420;28;20436;-75
2021/03/23 12:05:05;;;;;;;30.17;17.10;;;17.20;90.10;;;;;;4973514;28;20413;-75
2021/03/23 12:07:55;;;;;;;21.63;16.17;;;17.40;92.90;;;;;;4973796;28;20435;-76
2021/03/23 12:10:48;;;;;;;19.63;16.37;;;17.90;90.90;;;;;;4971085;28;20993;-76
2021/03/23 12:13:35;;;;;;;21.63;17.57;;;17.10;86.40;;;;;;4973249;28;20429;-76
2021/03/23 12:16:13;;;;;;;23.30;16.90;;;17.10;91.20;;;;;;4971631;28;20457;-76
2021/03/23 12:18:41;;;;;;;17.60;15.73;;;17.40;92.70;;;;;;4998261;28;20441;-76
2021/03/23 12:21:08;;;;;;;19.83;14.67;;;17.70;91.00;;;;;;4972498;28;20425;-77
2021/03/23 12:23:33;;;;;;;24.17;15.67;;;17.80;91.40;;;;;;4972688;28;20777;-75
2021/03/23 12:25:59;;;;;;;22.90;17.00;;;17.60;92.40;;;;;;4973663;28;20436;-76
2021/03/23 12:28:26;;;;;;;27.80;20.90;;;17.80;90.20;;;;;;4972812;28;20194;-76
2021/03/23 12:30:52;;;;;;;25.97;18.63;;;17.70;90.40;;;;;;4973579;28;20421;-74
2021/03/23 12:33:17;;;;;;;23.23;17.00;;;17.90;90.70;;;;;;4972993;28;20902;-76
2021/03/23 12:35:43;;;;;;;23.10;16.47;;;17.60;88.80;;;;;;4973177;28;20194;-76
2021/03/23 12:38:11;;;;;;;20.40;16.60;;;17.30;91.20;;;;;;4973580;28;20686;-74
2021/03/23 12:40:38;;;;;;;16.93;15.13;;;17.40;91.60;;;;;;4973645;28;20256;-76
2021/03/23 12:43:09;;;;;;;19.97;16.07;;;17.50;90.30;;;;;;4971950;28;20576;-76
2021/03/23 12:45:39;;;;;;;15.80;14.00;;;17.20;91.00;;;;;;4973876;28;20436;-76
2021/03/23 12:48:05;;;;;;;17.77;15.80;;;17.20;91.10;;;;;;4973415;28;20524;-77
2021/03/23 12:50:31;;;;;;;20.53;15.00;;;16.60;91.00;;;;;;4973516;28;20496;-77
2021/03/23 12:53:01;;;;;;;21.70;16.17;;;16.60;92.60;;;;;;4973542;28;20436;-77
2021/03/23 12:55:29;;;;;;;19.73;15.27;;;16.60;92.10;;;;;;5004658;28;20185;-77
2021/03/23 12:57:57;;;;;;;19.30;14.80;;;16.50;93.70;;;;;;4974430;28;20425;-78
2021/03/23 13:00:31;;;;;;;26.47;16.37;;;16.60;93.60;;;;;;4976174;28;20420;-78